This is the latest recevied weather packets stored in our database for station/object F8KGK-5. If no packets are shown the sender has not sent any weather packets the latest 10 day(s).
| Time | Temp. | Humidity | Pressure | Rain* | Wind** | Luminosity | Snow |
|---|---|---|---|---|---|---|---|
| 1787974346 | 15.56° C | 81% | 1004.9 hPa | 0 mm | - | - | - |
| 1787972546 | 15.56° C | 83% | 1005.2 hPa | 0 mm | - | - | - |
| 1787970744 | 15° C | 83% | 1005.5 hPa | 0 mm | - | - | - |
| 1787968945 | 15.56° C | 82% | 1005.6 hPa | 0 mm | - | - | - |
| 1787967146 | 15.56° C | 82% | 1005.7 hPa | 0 mm | - | - | - |
| 1787965346 | 16.11° C | 80% | 1006 hPa | 0 mm | - | - | - |
| 1787963546 | 16.11° C | 80% | 1006.2 hPa | 0 mm | - | - | - |
| 1787961745 | 16.11° C | 79% | 1006.5 hPa | 0 mm | - | - | - |
| 1787959946 | 16.67° C | 77% | 1006.5 hPa | 0 mm | - | - | - |
| 1787958146 | 16.67° C | 77% | 1006.5 hPa | 0 mm | - | - | - |
| 1787956346 | 17.22° C | 77% | 1006.7 hPa | 0 mm | - | - | - |
| 1787954545 | 16.67° C | 78% | 1006.6 hPa | 0 mm | - | - | - |
| 1787952746 | 17.22° C | 77% | 1006.5 hPa | 0 mm | - | - | - |
| 1787950945 | 17.22° C | 74% | 1006.5 hPa | 0 mm | - | - | - |
| 1787949145 | 17.78° C | 70% | 1006.5 hPa | 0 mm | - | - | - |
| 1787947345 | 18.33° C | 68% | 1006.5 hPa | 0 mm | - | - | - |
| 1787945546 | 18.89° C | 68% | 1006.2 hPa | 0 mm | - | - | - |
| 1787943745 | 18.89° C | 69% | 1006 hPa | 0 mm | - | - | - |
| 1787941945 | 20.56° C | 66% | 1005.6 hPa | 0 mm | - | - | - |
| 1787940145 | 21.11° C | 64% | 1005.6 hPa | 0 mm | - | - | - |
| 1787938346 | 21.67° C | 63% | 1005.4 hPa | 0 mm | - | - | - |
| 1787936546 | 21.11° C | 64% | 1005.4 hPa | 0 mm | - | - | - |
| 1787934745 | 21.67° C | 61% | 1005.4 hPa | 0 mm | - | - | - |
| 1787932945 | 22.22° C | 63% | 1005.3 hPa | 0 mm | - | - | - |
| 1787931145 | 21.11° C | 64% | 1005.3 hPa | 0 mm | - | - | - |
* Rain latest hour (hover to see other rain measurements)
** Current wind speed in m/s (hover to see current wind gust speed)